sensor_id;sensor_type;location;lat;lon;timestamp;temperature;humidity
29093;DHT22;16167;48.768;14.984;2023-04-03T00:01:00;2.40;99.90
29093;DHT22;16167;48.768;14.984;2023-04-03T00:03:28;2.40;99.90
29093;DHT22;16167;48.768;14.984;2023-04-03T00:05:56;2.40;99.90
29093;DHT22;16167;48.768;14.984;2023-04-03T00:08:25;2.40;99.90
29093;DHT22;16167;48.768;14.984;2023-04-03T00:10:55;2.50;99.90
29093;DHT22;16167;48.768;14.984;2023-04-03T00:13:23;2.40;99.90
29093;DHT22;16167;48.768;14.984;2023-04-03T00:15:52;2.40;99.90
29093;DHT22;16167;48.768;14.984;2023-04-03T00:18:20;2.40;99.90
29093;DHT22;16167;48.768;14.984;2023-04-03T00:20:49;2.40;99.90
29093;DHT22;16167;48.768;14.984;2023-04-03T00:23:17;2.40;99.90
29093;DHT22;16167;48.768;14.984;2023-04-03T00:25:45;2.40;99.90
29093;DHT22;16167;48.768;14.984;2023-04-03T00:28:15;2.40;99.90
29093;DHT22;16167;48.768;14.984;2023-04-03T00:30:44;2.40;99.90
29093;DHT22;16167;48.768;14.984;2023-04-03T00:33:12;2.40;99.90
29093;DHT22;16167;48.768;14.984;2023-04-03T00:35:41;2.40;99.90
29093;DHT22;16167;48.768;14.984;2023-04-03T00:38:09;2.40;99.90
29093;DHT22;16167;48.768;14.984;2023-04-03T00:40:42;2.40;99.90
29093;DHT22;16167;48.768;14.984;2023-04-03T00:43:13;2.40;99.90
29093;DHT22;16167;48.768;14.984;2023-04-03T00:45:44;2.40;99.90
29093;DHT22;16167;48.768;14.984;2023-04-03T00:48:16;2.30;99.90
29093;DHT22;16167;48.768;14.984;2023-04-03T00:50:45;2.40;99.90
29093;DHT22;16167;48.768;14.984;2023-04-03T00:53:16;2.40;99.90
29093;DHT22;16167;48.768;14.984;2023-04-03T00:55:47;2.40;99.90
29093;DHT22;16167;48.768;14.984;2023-04-03T00:58:18;2.40;99.90
29093;DHT22;16167;48.768;14.984;2023-04-03T01:00:54;2.30;99.90
29093;DHT22;16167;48.768;14.984;2023-04-03T01:03:24;2.30;99.90
29093;DHT22;16167;48.768;14.984;2023-04-03T01:05:53;2.30;99.90
29093;DHT22;16167;48.768;14.984;2023-04-03T01:08:21;2.30;99.90
29093;DHT22;16167;48.768;14.984;2023-04-03T01:10:50;2.30;99.90
29093;DHT22;16167;48.768;14.984;2023-04-03T01:13:23;2.30;99.90
29093;DHT22;16167;48.768;14.984;2023-04-03T01:15:53;2.30;99.90
29093;DHT22;16167;48.768;14.984;2023-04-03T01:18:23;2.30;99.90
29093;DHT22;16167;48.768;14.984;2023-04-03T01:21:36;2.30;99.90
29093;DHT22;16167;48.768;14.984;2023-04-03T01:24:30;2.30;99.90
29093;DHT22;16167;48.768;14.984;2023-04-03T01:27:02;2.20;99.90
29093;DHT22;16167;48.768;14.984;2023-04-03T01:29:31;2.20;99.90
29093;DHT22;16167;48.768;14.984;2023-04-03T01:32:01;2.20;99.90
29093;DHT22;16167;48.768;14.984;2023-04-03T01:34:30;2.20;99.90
29093;DHT22;16167;48.768;14.984;2023-04-03T01:36:59;2.20;99.90
29093;DHT22;16167;48.768;14.984;2023-04-03T01:39:27;2.20;99.90
29093;DHT22;16167;48.768;14.984;2023-04-03T01:41:55;2.20;99.90
29093;DHT22;16167;48.768;14.984;2023-04-03T01:44:24;2.10;99.90
29093;DHT22;16167;48.768;14.984;2023-04-03T01:46:52;2.10;99.90
29093;DHT22;16167;48.768;14.984;2023-04-03T01:49:22;2.10;99.90
29093;DHT22;16167;48.768;14.984;2023-04-03T01:51:50;2.10;99.90
29093;DHT22;16167;48.768;14.984;2023-04-03T01:54:18;2.10;99.90
29093;DHT22;16167;48.768;14.984;2023-04-03T01:56:46;2.10;99.90
29093;DHT22;16167;48.768;14.984;2023-04-03T01:59:14;2.10;99.90
29093;DHT22;16167;48.768;14.984;2023-04-03T02:01:43;2.10;99.90
29093;DHT22;16167;48.768;14.984;2023-04-03T02:04:12;2.10;99.90
29093;DHT22;16167;48.768;14.984;2023-04-03T02:06:42;2.10;99.90
29093;DHT22;16167;48.768;14.984;2023-04-03T02:09:10;2.10;99.90
29093;DHT22;16167;48.768;14.984;2023-04-03T02:11:38;2.00;99.90
29093;DHT22;16167;48.768;14.984;2023-04-03T02:14:07;2.00;99.90
29093;DHT22;16167;48.768;14.984;2023-04-03T02:16:35;2.00;99.90
29093;DHT22;16167;48.768;14.984;2023-04-03T02:19:03;2.00;99.90
29093;DHT22;16167;48.768;14.984;2023-04-03T02:21:31;2.00;99.90
29093;DHT22;16167;48.768;14.984;2023-04-03T02:24:01;2.00;99.90
29093;DHT22;16167;48.768;14.984;2023-04-03T02:26:29;2.00;99.90
29093;DHT22;16167;48.768;14.984;2023-04-03T02:28:57;2.00;99.90
29093;DHT22;16167;48.768;14.984;2023-04-03T02:31:25;1.90;99.90
29093;DHT22;16167;48.768;14.984;2023-04-03T02:33:53;1.90;99.90
29093;DHT22;16167;48.768;14.984;2023-04-03T02:36:22;2.00;99.90
29093;DHT22;16167;48.768;14.984;2023-04-03T02:38:50;1.90;99.90
29093;DHT22;16167;48.768;14.984;2023-04-03T02:41:19;1.90;99.90
29093;DHT22;16167;48.768;14.984;2023-04-03T02:43:47;1.90;99.90
29093;DHT22;16167;48.768;14.984;2023-04-03T02:46:15;1.90;99.90
29093;DHT22;16167;48.768;14.984;2023-04-03T02:48:43;1.90;99.90
29093;DHT22;16167;48.768;14.984;2023-04-03T02:51:12;1.90;99.90
29093;DHT22;16167;48.768;14.984;2023-04-03T02:53:40;1.90;99.90
29093;DHT22;16167;48.768;14.984;2023-04-03T02:56:08;1.90;99.90
29093;DHT22;16167;48.768;14.984;2023-04-03T02:58:37;1.90;99.90
29093;DHT22;16167;48.768;14.984;2023-04-03T03:01:05;1.90;99.90
29093;DHT22;16167;48.768;14.984;2023-04-03T03:03:33;1.80;99.90
29093;DHT22;16167;48.768;14.984;2023-04-03T03:06:03;1.80;99.90
29093;DHT22;16167;48.768;14.984;2023-04-03T03:08:31;1.90;99.90
29093;DHT22;16167;48.768;14.984;2023-04-03T03:11:00;1.80;99.90
29093;DHT22;16167;48.768;14.984;2023-04-03T03:13:28;1.90;99.90
29093;DHT22;16167;48.768;14.984;2023-04-03T03:15:57;1.90;99.90
29093;DHT22;16167;48.768;14.984;2023-04-03T03:18:26;1.90;99.90
29093;DHT22;16167;48.768;14.984;2023-04-03T03:20:56;1.80;99.90
29093;DHT22;16167;48.768;14.984;2023-04-03T03:23:26;1.80;99.90
29093;DHT22;16167;48.768;14.984;2023-04-03T03:25:55;1.80;99.90
29093;DHT22;16167;48.768;14.984;2023-04-03T03:28:24;1.80;99.90
29093;DHT22;16167;48.768;14.984;2023-04-03T03:30:52;1.80;99.90
29093;DHT22;16167;48.768;14.984;2023-04-03T03:33:21;1.80;99.90
29093;DHT22;16167;48.768;14.984;2023-04-03T03:35:49;1.80;99.90
29093;DHT22;16167;48.768;14.984;2023-04-03T03:38:18;1.80;99.90
29093;DHT22;16167;48.768;14.984;2023-04-03T03:40:47;1.80;99.90
29093;DHT22;16167;48.768;14.984;2023-04-03T03:43:17;1.80;99.90
29093;DHT22;16167;48.768;14.984;2023-04-03T03:45:46;1.80;99.90
29093;DHT22;16167;48.768;14.984;2023-04-03T03:48:17;1.80;99.90
29093;DHT22;16167;48.768;14.984;2023-04-03T03:50:46;1.80;99.90
29093;DHT22;16167;48.768;14.984;2023-04-03T03:53:14;1.80;99.90
29093;DHT22;16167;48.768;14.984;2023-04-03T03:55:42;1.80;99.90
29093;DHT22;16167;48.768;14.984;2023-04-03T03:58:10;1.80;99.90
29093;DHT22;16167;48.768;14.984;2023-04-03T04:00:38;1.80;99.90
29093;DHT22;16167;48.768;14.984;2023-04-03T04:03:07;1.80;99.90
29093;DHT22;16167;48.768;14.984;2023-04-03T04:05:35;1.70;99.90
29093;DHT22;16167;48.768;14.984;2023-04-03T04:08:05;1.80;99.90
29093;DHT22;16167;48.768;14.984;2023-04-03T04:10:34;1.80;99.90
29093;DHT22;16167;48.768;14.984;2023-04-03T04:13:02;1.70;99.90
29093;DHT22;16167;48.768;14.984;2023-04-03T04:15:30;1.70;99.90
29093;DHT22;16167;48.768;14.984;2023-04-03T04:17:58;1.80;99.90
29093;DHT22;16167;48.768;14.984;2023-04-03T04:20:26;1.70;99.90
29093;DHT22;16167;48.768;14.984;2023-04-03T04:22:54;1.70;99.90
29093;DHT22;16167;48.768;14.984;2023-04-03T04:25:24;1.70;99.90
29093;DHT22;16167;48.768;14.984;2023-04-03T04:27:52;1.70;99.90
29093;DHT22;16167;48.768;14.984;2023-04-03T04:30:20;1.70;99.90
29093;DHT22;16167;48.768;14.984;2023-04-03T04:32:48;1.70;99.90
29093;DHT22;16167;48.768;14.984;2023-04-03T04:35:16;1.70;99.90
29093;DHT22;16167;48.768;14.984;2023-04-03T04:37:44;1.70;99.90
29093;DHT22;16167;48.768;14.984;2023-04-03T04:40:13;1.70;99.90
29093;DHT22;16167;48.768;14.984;2023-04-03T04:42:42;1.70;99.90
29093;DHT22;16167;48.768;14.984;2023-04-03T04:45:10;1.60;99.90
29093;DHT22;16167;48.768;14.984;2023-04-03T04:47:39;1.70;99.90
29093;DHT22;16167;48.768;14.984;2023-04-03T04:50:07;1.60;99.90
29093;DHT22;16167;48.768;14.984;2023-04-03T04:52:35;1.60;99.90
29093;DHT22;16167;48.768;14.984;2023-04-03T04:55:04;1.60;99.90
29093;DHT22;16167;48.768;14.984;2023-04-03T04:57:33;1.60;99.90
29093;DHT22;16167;48.768;14.984;2023-04-03T05:00:04;1.60;99.90
29093;DHT22;16167;48.768;14.984;2023-04-03T05:02:32;1.60;99.90
29093;DHT22;16167;48.768;14.984;2023-04-03T05:05:00;1.60;99.90
29093;DHT22;16167;48.768;14.984;2023-04-03T05:07:31;1.60;99.90
29093;DHT22;16167;48.768;14.984;2023-04-03T05:09:59;1.60;99.90
29093;DHT22;16167;48.768;14.984;2023-04-03T05:12:27;1.60;99.90
29093;DHT22;16167;48.768;14.984;2023-04-03T05:14:55;1.60;99.90
29093;DHT22;16167;48.768;14.984;2023-04-03T05:17:24;1.70;99.90
29093;DHT22;16167;48.768;14.984;2023-04-03T05:19:52;1.70;99.90
29093;DHT22;16167;48.768;14.984;2023-04-03T05:22:20;1.70;99.90
29093;DHT22;16167;48.768;14.984;2023-04-03T05:24:49;1.70;99.90
29093;DHT22;16167;48.768;14.984;2023-04-03T05:27:17;1.80;99.90
29093;DHT22;16167;48.768;14.984;2023-04-03T05:29:45;1.80;99.90
29093;DHT22;16167;48.768;14.984;2023-04-03T05:32:13;1.80;99.90
29093;DHT22;16167;48.768;14.984;2023-04-03T05:34:42;1.80;99.90
29093;DHT22;16167;48.768;14.984;2023-04-03T05:37:11;1.80;99.90
29093;DHT22;16167;48.768;14.984;2023-04-03T05:39:40;1.80;99.90
29093;DHT22;16167;48.768;14.984;2023-04-03T05:42:08;1.80;99.90
29093;DHT22;16167;48.768;14.984;2023-04-03T05:44:38;1.90;99.90
29093;DHT22;16167;48.768;14.984;2023-04-03T05:47:06;1.80;99.90
29093;DHT22;16167;48.768;14.984;2023-04-03T05:49:34;1.90;99.90
29093;DHT22;16167;48.768;14.984;2023-04-03T05:52:04;1.90;99.90
29093;DHT22;16167;48.768;14.984;2023-04-03T05:54:33;1.90;99.90
29093;DHT22;16167;48.768;14.984;2023-04-03T05:57:01;1.90;99.90
29093;DHT22;16167;48.768;14.984;2023-04-03T05:59:29;1.90;99.90
29093;DHT22;16167;48.768;14.984;2023-04-03T06:01:57;1.90;99.90
29093;DHT22;16167;48.768;14.984;2023-04-03T06:04:25;1.90;99.90
29093;DHT22;16167;48.768;14.984;2023-04-03T06:06:55;1.90;99.90
29093;DHT22;16167;48.768;14.984;2023-04-03T06:09:27;1.90;99.90
29093;DHT22;16167;48.768;14.984;2023-04-03T06:11:56;1.90;99.90
29093;DHT22;16167;48.768;14.984;2023-04-03T06:14:25;1.90;99.90
29093;DHT22;16167;48.768;14.984;2023-04-03T06:16:53;1.90;99.90
29093;DHT22;16167;48.768;14.984;2023-04-03T06:19:22;2.00;99.90
29093;DHT22;16167;48.768;14.984;2023-04-03T06:21:50;1.90;99.90
29093;DHT22;16167;48.768;14.984;2023-04-03T06:24:19;1.90;99.90
29093;DHT22;16167;48.768;14.984;2023-04-03T06:26:49;2.00;99.90
29093;DHT22;16167;48.768;14.984;2023-04-03T06:29:17;2.00;99.90
29093;DHT22;16167;48.768;14.984;2023-04-03T06:31:46;2.00;99.90
29093;DHT22;16167;48.768;14.984;2023-04-03T06:34:14;2.10;99.90
29093;DHT22;16167;48.768;14.984;2023-04-03T06:36:46;2.10;99.90
29093;DHT22;16167;48.768;14.984;2023-04-03T06:39:18;2.10;99.90
29093;DHT22;16167;48.768;14.984;2023-04-03T06:41:47;2.10;99.90
29093;DHT22;16167;48.768;14.984;2023-04-03T06:44:18;2.20;99.90
29093;DHT22;16167;48.768;14.984;2023-04-03T06:46:46;2.30;99.90
29093;DHT22;16167;48.768;14.984;2023-04-03T06:49:15;2.20;99.90
29093;DHT22;16167;48.768;14.984;2023-04-03T06:51:43;2.30;99.90
29093;DHT22;16167;48.768;14.984;2023-04-03T06:54:12;2.40;99.90
29093;DHT22;16167;48.768;14.984;2023-04-03T06:56:41;2.50;99.90
29093;DHT22;16167;48.768;14.984;2023-04-03T06:59:10;2.50;99.90
29093;DHT22;16167;48.768;14.984;2023-04-03T07:01:41;2.50;99.90
29093;DHT22;16167;48.768;14.984;2023-04-03T07:04:09;2.60;99.90
29093;DHT22;16167;48.768;14.984;2023-04-03T07:06:37;2.70;99.90
29093;DHT22;16167;48.768;14.984;2023-04-03T07:09:05;2.80;99.90
29093;DHT22;16167;48.768;14.984;2023-04-03T07:11:34;2.80;99.90
29093;DHT22;16167;48.768;14.984;2023-04-03T07:14:03;2.90;99.90
29093;DHT22;16167;48.768;14.984;2023-04-03T07:16:32;3.00;99.90
29093;DHT22;16167;48.768;14.984;2023-04-03T07:19:01;3.00;99.90
29093;DHT22;16167;48.768;14.984;2023-04-03T07:21:30;3.10;99.90
29093;DHT22;16167;48.768;14.984;2023-04-03T07:23:58;3.20;99.90
29093;DHT22;16167;48.768;14.984;2023-04-03T07:26:26;3.20;99.90
29093;DHT22;16167;48.768;14.984;2023-04-03T07:28:54;3.40;99.90
29093;DHT22;16167;48.768;14.984;2023-04-03T07:31:22;3.40;99.90
29093;DHT22;16167;48.768;14.984;2023-04-03T07:33:51;3.60;99.90
29093;DHT22;16167;48.768;14.984;2023-04-03T07:36:22;3.80;99.90
29093;DHT22;16167;48.768;14.984;2023-04-03T07:38:50;3.90;99.90
29093;DHT22;16167;48.768;14.984;2023-04-03T07:41:19;3.90;99.90
29093;DHT22;16167;48.768;14.984;2023-04-03T07:43:49;4.00;99.90
29093;DHT22;16167;48.768;14.984;2023-04-03T07:46:17;4.10;99.90
29093;DHT22;16167;48.768;14.984;2023-04-03T07:48:46;4.30;99.90
29093;DHT22;16167;48.768;14.984;2023-04-03T07:51:14;4.50;99.90
29093;DHT22;16167;48.768;14.984;2023-04-03T07:53:44;4.70;99.90
29093;DHT22;16167;48.768;14.984;2023-04-03T07:56:12;4.90;99.90
29093;DHT22;16167;48.768;14.984;2023-04-03T07:58:40;5.10;99.30
29093;DHT22;16167;48.768;14.984;2023-04-03T08:01:09;5.20;99.90
29093;DHT22;16167;48.768;14.984;2023-04-03T08:03:38;5.30;99.80
29093;DHT22;16167;48.768;14.984;2023-04-03T08:06:07;5.40;99.20
29093;DHT22;16167;48.768;14.984;2023-04-03T08:08:41;5.60;99.20
29093;DHT22;16167;48.768;14.984;2023-04-03T08:11:12;6.10;98.60
29093;DHT22;16167;48.768;14.984;2023-04-03T08:13:40;6.30;97.10
29093;DHT22;16167;48.768;14.984;2023-04-03T08:16:10;6.30;96.50
29093;DHT22;16167;48.768;14.984;2023-04-03T08:18:38;6.40;97.70
29093;DHT22;16167;48.768;14.984;2023-04-03T08:21:08;6.40;97.50
29093;DHT22;16167;48.768;14.984;2023-04-03T08:23:36;6.40;97.20
29093;DHT22;16167;48.768;14.984;2023-04-03T08:26:09;6.50;97.30
29093;DHT22;16167;48.768;14.984;2023-04-03T08:28:40;6.50;96.80
29093;DHT22;16167;48.768;14.984;2023-04-03T08:31:11;6.30;97.10
29093;DHT22;16167;48.768;14.984;2023-04-03T08:33:40;6.20;95.80
29093;DHT22;16167;48.768;14.984;2023-04-03T08:36:17;6.30;96.50
29093;DHT22;16167;48.768;14.984;2023-04-03T08:38:46;6.30;96.00
29093;DHT22;16167;48.768;14.984;2023-04-03T08:41:18;6.50;95.60
29093;DHT22;16167;48.768;14.984;2023-04-03T08:44:02;6.50;95.60
29093;DHT22;16167;48.768;14.984;2023-04-03T08:46:39;6.50;95.90
29093;DHT22;16167;48.768;14.984;2023-04-03T08:49:12;6.60;94.30
29093;DHT22;16167;48.768;14.984;2023-04-03T08:51:47;6.50;93.50
29093;DHT22;16167;48.768;14.984;2023-04-03T08:54:27;6.40;93.90
29093;DHT22;16167;48.768;14.984;2023-04-03T08:57:01;6.40;93.60
29093;DHT22;16167;48.768;14.984;2023-04-03T08:59:34;6.30;93.90
29093;DHT22;16167;48.768;14.984;2023-04-03T09:02:04;6.30;93.70
29093;DHT22;16167;48.768;14.984;2023-04-03T09:04:42;6.40;93.20
29093;DHT22;16167;48.768;14.984;2023-04-03T09:07:15;6.20;92.70
29093;DHT22;16167;48.768;14.984;2023-04-03T09:09:44;6.20;92.20
29093;DHT22;16167;48.768;14.984;2023-04-03T09:12:19;6.10;93.00
29093;DHT22;16167;48.768;14.984;2023-04-03T09:14:57;6.40;92.50
29093;DHT22;16167;48.768;14.984;2023-04-03T09:17:36;6.80;93.50
29093;DHT22;16167;48.768;14.984;2023-04-03T09:20:14;6.80;92.50
29093;DHT22;16167;48.768;14.984;2023-04-03T09:22:47;6.60;91.40
29093;DHT22;16167;48.768;14.984;2023-04-03T09:25:21;6.30;91.90
29093;DHT22;16167;48.768;14.984;2023-04-03T09:27:50;6.40;92.10
29093;DHT22;16167;48.768;14.984;2023-04-03T09:30:21;6.40;92.90
29093;DHT22;16167;48.768;14.984;2023-04-03T09:32:51;6.90;93.90
29093;DHT22;16167;48.768;14.984;2023-04-03T09:35:23;7.40;92.10
29093;DHT22;16167;48.768;14.984;2023-04-03T09:38:19;7.40;92.00
29093;DHT22;16167;48.768;14.984;2023-04-03T09:40:49;7.90;91.60
29093;DHT22;16167;48.768;14.984;2023-04-03T09:43:27;8.70;87.90
29093;DHT22;16167;48.768;14.984;2023-04-03T09:46:16;8.40;85.60
29093;DHT22;16167;48.768;14.984;2023-04-03T09:48:51;7.90;84.10
29093;DHT22;16167;48.768;14.984;2023-04-03T09:51:34;7.60;88.20
29093;DHT22;16167;48.768;14.984;2023-04-03T09:54:24;7.30;87.30
29093;DHT22;16167;48.768;14.984;2023-04-03T09:57:03;7.20;83.00
29093;DHT22;16167;48.768;14.984;2023-04-03T09:59:32;7.00;86.70
29093;DHT22;16167;48.768;14.984;2023-04-03T10:02:04;7.00;84.70
29093;DHT22;16167;48.768;14.984;2023-04-03T10:04:44;7.00;85.30
29093;DHT22;16167;48.768;14.984;2023-04-03T10:07:31;6.90;85.10
29093;DHT22;16167;48.768;14.984;2023-04-03T10:10:03;6.80;87.10
29093;DHT22;16167;48.768;14.984;2023-04-03T10:12:43;6.70;84.10
29093;DHT22;16167;48.768;14.984;2023-04-03T10:15:13;7.10;80.30
29093;DHT22;16167;48.768;14.984;2023-04-03T10:17:51;6.90;78.90
29093;DHT22;16167;48.768;14.984;2023-04-03T10:20:27;6.70;76.00
29093;DHT22;16167;48.768;14.984;2023-04-03T10:23:05;6.60;75.80
29093;DHT22;16167;48.768;14.984;2023-04-03T10:25:43;6.80;79.50
29093;DHT22;16167;48.768;14.984;2023-04-03T10:28:19;7.40;79.50
29093;DHT22;16167;48.768;14.984;2023-04-03T10:30:53;8.50;76.70
29093;DHT22;16167;48.768;14.984;2023-04-03T10:33:39;9.20;70.40
29093;DHT22;16167;48.768;14.984;2023-04-03T10:36:21;9.20;73.90
29093;DHT22;16167;48.768;14.984;2023-04-03T10:38:58;8.80;71.00
29093;DHT22;16167;48.768;14.984;2023-04-03T10:41:34;8.30;72.30
29093;DHT22;16167;48.768;14.984;2023-04-03T10:44:14;8.10;72.80
29093;DHT22;16167;48.768;14.984;2023-04-03T10:46:47;7.90;73.30
29093;DHT22;16167;48.768;14.984;2023-04-03T10:49:29;7.80;72.70
29093;DHT22;16167;48.768;14.984;2023-04-03T10:52:09;7.70;72.90
29093;DHT22;16167;48.768;14.984;2023-04-03T10:54:41;7.80;72.60
29093;DHT22;16167;48.768;14.984;2023-04-03T10:57:11;7.80;72.60
29093;DHT22;16167;48.768;14.984;2023-04-03T10:59:43;7.90;74.70
29093;DHT22;16167;48.768;14.984;2023-04-03T11:02:17;7.90;72.50
29093;DHT22;16167;48.768;14.984;2023-04-03T11:04:52;7.70;70.10
29093;DHT22;16167;48.768;14.984;2023-04-03T11:07:26;7.80;70.10
29093;DHT22;16167;48.768;14.984;2023-04-03T11:09:57;8.20;71.90
29093;DHT22;16167;48.768;14.984;2023-04-03T11:12:35;8.20;68.50
29093;DHT22;16167;48.768;14.984;2023-04-03T11:15:11;8.50;68.10
29093;DHT22;16167;48.768;14.984;2023-04-03T11:17:43;9.60;69.70
29093;DHT22;16167;48.768;14.984;2023-04-03T11:20:18;10.40;69.40
29093;DHT22;16167;48.768;14.984;2023-04-03T11:22:51;10.90;64.30
29093;DHT22;16167;48.768;14.984;2023-04-03T11:25:23;10.80;62.00
29093;DHT22;16167;48.768;14.984;2023-04-03T11:27:55;10.40;62.20
29093;DHT22;16167;48.768;14.984;2023-04-03T11:30:28;10.40;62.10
29093;DHT22;16167;48.768;14.984;2023-04-03T11:33:23;10.80;57.00
29093;DHT22;16167;48.768;14.984;2023-04-03T11:35:58;10.70;61.00
29093;DHT22;16167;48.768;14.984;2023-04-03T11:38:37;10.80;58.30
29093;DHT22;16167;48.768;14.984;2023-04-03T11:41:08;10.30;56.20
29093;DHT22;16167;48.768;14.984;2023-04-03T11:43:41;9.80;59.10
29093;DHT22;16167;48.768;14.984;2023-04-03T11:46:09;9.20;58.80
29093;DHT22;16167;48.768;14.984;2023-04-03T11:48:51;8.80;61.10
29093;DHT22;16167;48.768;14.984;2023-04-03T11:51:41;9.00;57.90
29093;DHT22;16167;48.768;14.984;2023-04-03T11:54:36;9.90;64.90
29093;DHT22;16167;48.768;14.984;2023-04-03T12:04:03;8.60;57.70
29093;DHT22;16167;48.768;14.984;2023-04-03T12:10:16;7.30;58.90
29093;DHT22;16167;48.768;14.984;2023-04-03T12:12:59;7.10;59.50
29093;DHT22;16167;48.768;14.984;2023-04-03T12:15:51;7.30;62.80
29093;DHT22;16167;48.768;14.984;2023-04-03T12:18:55;7.40;60.70
29093;DHT22;16167;48.768;14.984;2023-04-03T12:21:24;7.70;59.50
29093;DHT22;16167;48.768;14.984;2023-04-03T12:24:26;8.80;60.70
29093;DHT22;16167;48.768;14.984;2023-04-03T12:27:25;10.20;58.00
29093;DHT22;16167;48.768;14.984;2023-04-03T12:29:59;10.40;54.00
29093;DHT22;16167;48.768;14.984;2023-04-03T12:32:56;9.90;54.50
29093;DHT22;16167;48.768;14.984;2023-04-03T12:35:44;9.30;57.60
29093;DHT22;16167;48.768;14.984;2023-04-03T12:38:28;8.90;56.90
29093;DHT22;16167;48.768;14.984;2023-04-03T12:41:18;8.80;58.00
29093;DHT22;16167;48.768;14.984;2023-04-03T12:44:02;9.00;57.00
29093;DHT22;16167;48.768;14.984;2023-04-03T12:46:37;9.80;57.90
29093;DHT22;16167;48.768;14.984;2023-04-03T12:49:22;10.10;55.60
29093;DHT22;16167;48.768;14.984;2023-04-03T12:51:51;10.80;57.50
29093;DHT22;16167;48.768;14.984;2023-04-03T12:54:32;11.20;55.40
29093;DHT22;16167;48.768;14.984;2023-04-03T12:57:11;11.80;55.40
29093;DHT22;16167;48.768;14.984;2023-04-03T12:59:40;11.30;53.30
29093;DHT22;16167;48.768;14.984;2023-04-03T13:02:24;10.70;52.60
29093;DHT22;16167;48.768;14.984;2023-04-03T13:04:55;10.20;54.10
29093;DHT22;16167;48.768;14.984;2023-04-03T13:07:27;9.90;53.50
29093;DHT22;16167;48.768;14.984;2023-04-03T13:10:00;9.80;51.00
29093;DHT22;16167;48.768;14.984;2023-04-03T13:12:29;9.80;54.80
29093;DHT22;16167;48.768;14.984;2023-04-03T13:15:02;10.40;55.90
29093;DHT22;16167;48.768;14.984;2023-04-03T13:17:31;10.30;52.20
29093;DHT22;16167;48.768;14.984;2023-04-03T13:20:11;9.90;54.60
29093;DHT22;16167;48.768;14.984;2023-04-03T13:22:47;9.60;54.80
29093;DHT22;16167;48.768;14.984;2023-04-03T13:25:16;9.30;54.60
29093;DHT22;16167;48.768;14.984;2023-04-03T13:27:46;9.10;55.60
29093;DHT22;16167;48.768;14.984;2023-04-03T13:30:26;10.00;54.50
29093;DHT22;16167;48.768;14.984;2023-04-03T13:32:55;11.10;54.20
29093;DHT22;16167;48.768;14.984;2023-04-03T13:35:35;11.60;50.60
29093;DHT22;16167;48.768;14.984;2023-04-03T13:38:22;11.20;50.20
29093;DHT22;16167;48.768;14.984;2023-04-03T13:40:52;10.50;51.90
29093;DHT22;16167;48.768;14.984;2023-04-03T13:43:23;10.00;52.10
29093;DHT22;16167;48.768;14.984;2023-04-03T13:45:59;9.50;53.50
29093;DHT22;16167;48.768;14.984;2023-04-03T13:48:37;9.30;53.80
29093;DHT22;16167;48.768;14.984;2023-04-03T13:51:16;8.90;53.60
29093;DHT22;16167;48.768;14.984;2023-04-03T13:53:47;9.50;57.60
29093;DHT22;16167;48.768;14.984;2023-04-03T13:56:21;9.40;54.30
29093;DHT22;16167;48.768;14.984;2023-04-03T13:58:59;9.20;52.30
29093;DHT22;16167;48.768;14.984;2023-04-03T14:01:41;8.90;54.00
29093;DHT22;16167;48.768;14.984;2023-04-03T14:04:16;8.50;54.10
29093;DHT22;16167;48.768;14.984;2023-04-03T14:06:45;8.30;53.40
29093;DHT22;16167;48.768;14.984;2023-04-03T14:09:14;8.30;54.70
29093;DHT22;16167;48.768;14.984;2023-04-03T14:11:43;8.20;55.10
29093;DHT22;16167;48.768;14.984;2023-04-03T14:14:14;8.10;55.80
29093;DHT22;16167;48.768;14.984;2023-04-03T14:16:46;8.10;56.30
29093;DHT22;16167;48.768;14.984;2023-04-03T14:19:19;8.50;56.40
29093;DHT22;16167;48.768;14.984;2023-04-03T14:21:48;9.30;55.80
29093;DHT22;16167;48.768;14.984;2023-04-03T14:24:18;9.50;54.00
29093;DHT22;16167;48.768;14.984;2023-04-03T14:26:46;9.20;52.80
29093;DHT22;16167;48.768;14.984;2023-04-03T14:29:15;8.70;53.60
29093;DHT22;16167;48.768;14.984;2023-04-03T14:31:47;8.20;54.30
29093;DHT22;16167;48.768;14.984;2023-04-03T14:34:23;7.90;55.30
29093;DHT22;16167;48.768;14.984;2023-04-03T14:36:51;7.70;56.60
29093;DHT22;16167;48.768;14.984;2023-04-03T14:39:20;7.50;55.80
29093;DHT22;16167;48.768;14.984;2023-04-03T14:41:48;7.20;56.50
29093;DHT22;16167;48.768;14.984;2023-04-03T14:44:16;7.00;55.90
29093;DHT22;16167;48.768;14.984;2023-04-03T14:46:46;6.90;57.10
29093;DHT22;16167;48.768;14.984;2023-04-03T14:49:26;6.70;57.70
29093;DHT22;16167;48.768;14.984;2023-04-03T14:51:56;6.50;57.70
29093;DHT22;16167;48.768;14.984;2023-04-03T14:54:25;6.40;58.30
29093;DHT22;16167;48.768;14.984;2023-04-03T14:56:56;6.30;58.80
29093;DHT22;16167;48.768;14.984;2023-04-03T14:59:25;6.20;59.50
29093;DHT22;16167;48.768;14.984;2023-04-03T15:01:55;6.20;59.30
29093;DHT22;16167;48.768;14.984;2023-04-03T15:04:23;6.20;58.70
29093;DHT22;16167;48.768;14.984;2023-04-03T15:06:52;6.10;58.50
29093;DHT22;16167;48.768;14.984;2023-04-03T15:09:23;6.00;58.40
29093;DHT22;16167;48.768;14.984;2023-04-03T15:11:53;5.80;58.70
29093;DHT22;16167;48.768;14.984;2023-04-03T15:14:22;5.70;59.20
29093;DHT22;16167;48.768;14.984;2023-04-03T15:17:04;5.50;60.10
29093;DHT22;16167;48.768;14.984;2023-04-03T15:19:37;5.40;61.10
29093;DHT22;16167;48.768;14.984;2023-04-03T15:22:05;5.40;60.20
29093;DHT22;16167;48.768;14.984;2023-04-03T15:24:36;5.30;59.40
29093;DHT22;16167;48.768;14.984;2023-04-03T15:27:05;5.30;60.30
29093;DHT22;16167;48.768;14.984;2023-04-03T15:29:33;5.30;60.00
29093;DHT22;16167;48.768;14.984;2023-04-03T15:32:02;5.20;59.90
29093;DHT22;16167;48.768;14.984;2023-04-03T15:34:32;5.10;60.80
29093;DHT22;16167;48.768;14.984;2023-04-03T15:37:00;5.00;62.30
29093;DHT22;16167;48.768;14.984;2023-04-03T15:39:28;4.90;61.30
29093;DHT22;16167;48.768;14.984;2023-04-03T15:41:58;4.80;61.80
29093;DHT22;16167;48.768;14.984;2023-04-03T15:44:33;4.70;60.90
29093;DHT22;16167;48.768;14.984;2023-04-03T15:47:02;4.60;63.10
29093;DHT22;16167;48.768;14.984;2023-04-03T15:49:33;4.60;63.70
29093;DHT22;16167;48.768;14.984;2023-04-03T15:52:01;4.60;63.40
29093;DHT22;16167;48.768;14.984;2023-04-03T15:54:29;4.50;63.20
29093;DHT22;16167;48.768;14.984;2023-04-03T15:56:58;4.50;63.10
29093;DHT22;16167;48.768;14.984;2023-04-03T15:59:26;4.50;63.10
29093;DHT22;16167;48.768;14.984;2023-04-03T16:01:55;4.50;64.10
29093;DHT22;16167;48.768;14.984;2023-04-03T16:04:24;4.50;64.00
29093;DHT22;16167;48.768;14.984;2023-04-03T16:06:53;4.50;64.50
29093;DHT22;16167;48.768;14.984;2023-04-03T16:09:21;4.40;65.30